Time;durP1;ratioP1;P1;durP2;ratioP2;P2;SDS_P1;SDS_P2;PMS_P1;PMS_P2;Temp;Humidity;BMP_temperature;BMP_pressure;BME280_temperature;BME280_humidity;BME280_pressure;Samples;Min_cycle;Max_cycle;Signal;HPM_P1;HPM_P2
2022/12/29 00:00:19;;;;;;;3.00;2.83;;;10.80;99.90;;;;;;5072121;28;20192;-65
2022/12/29 00:03:25;;;;;;;2.80;2.70;;;10.80;99.90;;;;;;5073631;28;20720;-64
2022/12/29 00:06:00;;;;;;;2.80;2.60;;;10.80;99.90;;;;;;5072819;28;20638;-64
2022/12/29 00:08:40;;;;;;;2.37;2.27;;;10.70;99.90;;;;;;5073321;28;20179;-65
2022/12/29 00:11:10;;;;;;;2.30;2.20;;;10.70;99.90;;;;;;5073364;28;20187;-65
2022/12/29 00:16:26;;;;;;;2.30;2.10;;;10.80;99.90;;;;;;5073180;28;20659;-64
2022/12/29 00:18:54;;;;;;;2.60;2.40;;;10.80;99.90;;;;;;5073090;28;20216;-64
2022/12/29 00:35:43;;;;;;;1.90;1.40;;;11.00;99.90;;;;;;5037131;28;20216;-65
2022/12/29 00:44:06;;;;;;;1.50;1.40;;;10.90;99.90;;;;;;5072911;28;20658;-64
2022/12/29 00:46:35;;;;;;;4.67;1.60;;;10.90;99.90;;;;;;5073034;28;20279;-64
2022/12/29 00:52:08;;;;;;;3.17;1.70;;;10.90;99.90;;;;;;4994628;28;20194;-64
2022/12/29 00:54:39;;;;;;;2.07;1.50;;;11.00;99.90;;;;;;5011178;28;20286;-65
2022/12/29 00:57:10;;;;;;;2.40;1.60;;;11.10;99.90;;;;;;5041446;28;20287;-64
2022/12/29 00:59:39;;;;;;;1.60;1.50;;;11.20;99.90;;;;;;5072880;28;20216;-64
2022/12/29 01:02:09;;;;;;;2.47;1.40;;;11.20;99.90;;;;;;5072759;28;20188;-64
2022/12/29 01:04:38;;;;;;;3.40;1.77;;;11.20;99.90;;;;;;5105456;28;20647;-65
2022/12/29 01:07:06;;;;;;;7.13;1.67;;;11.30;99.90;;;;;;5076546;28;20654;-64
2022/12/29 01:12:40;;;;;;;3.73;1.70;;;11.30;99.90;;;;;;5076316;28;20255;-64
2022/12/29 01:15:15;;;;;;;3.37;1.70;;;11.30;99.90;;;;;;5076231;28;20245;-64
2022/12/29 01:17:44;;;;;;;4.23;1.80;;;11.30;99.90;;;;;;5074820;28;20282;-64
2022/12/29 01:20:13;;;;;;;4.10;1.67;;;11.30;99.90;;;;;;5076608;28;20188;-64
2022/12/29 01:22:44;;;;;;;2.40;1.53;;;11.20;99.90;;;;;;5076280;28;20196;-65
2022/12/29 01:25:13;;;;;;;2.80;1.33;;;11.20;99.90;;;;;;5075345;28;20724;-65
2022/12/29 01:27:43;;;;;;;6.83;1.53;;;11.10;99.90;;;;;;5074729;28;20287;-64
2022/12/29 01:30:12;;;;;;;4.73;2.20;;;11.00;99.90;;;;;;5075288;28;20187;-64
2022/12/29 01:32:41;;;;;;;2.67;1.50;;;11.00;99.90;;;;;;5076165;28;20222;-64
2022/12/29 01:35:10;;;;;;;1.70;1.70;;;10.90;99.90;;;;;;5075807;28;20188;-64
2022/12/29 01:37:38;;;;;;;4.77;1.73;;;10.90;99.90;;;;;;5075826;28;20196;-64
2022/12/29 01:40:07;;;;;;;3.43;1.60;;;11.00;99.90;;;;;;5075713;28;20234;-64
2022/12/29 01:42:40;;;;;;;3.60;1.63;;;11.00;99.90;;;;;;5074748;28;20673;-64
2022/12/29 01:45:13;;;;;;;1.60;1.50;;;11.00;99.90;;;;;;5076044;28;20180;-65
2022/12/29 01:47:44;;;;;;;2.57;1.50;;;11.00;99.90;;;;;;5075661;28;20196;-65
2022/12/29 01:50:17;;;;;;;5.50;1.97;;;11.00;99.90;;;;;;5075602;28;20192;-64
2022/12/29 01:52:52;;;;;;;2.63;1.60;;;11.00;99.90;;;;;;5075574;28;20566;-65
2022/12/29 01:55:20;;;;;;;3.37;1.40;;;11.00;99.90;;;;;;5075899;28;20294;-65
2022/12/29 01:57:52;;;;;;;1.43;1.43;;;10.90;99.90;;;;;;5075481;28;20196;-64
2022/12/29 02:00:22;;;;;;;1.87;1.40;;;10.80;99.90;;;;;;5075387;28;20194;-65
2022/12/29 02:07:43;;;;;;;2.80;1.33;;;10.80;99.90;;;;;;5075262;28;20245;-65
2022/12/29 02:10:13;;;;;;;3.63;1.40;;;10.70;99.90;;;;;;5075335;28;20187;-64
2022/12/29 02:12:42;;;;;;;3.97;1.47;;;10.70;99.90;;;;;;5075953;28;20591;-65
2022/12/29 02:15:11;;;;;;;1.70;1.33;;;10.70;99.90;;;;;;5075399;28;20203;-65
2022/12/29 02:17:53;;;;;;;3.57;1.70;;;10.70;99.90;;;;;;5074952;28;20274;-64
2022/12/29 02:20:56;;;;;;;5.00;1.70;;;10.60;99.90;;;;;;5075243;28;20212;-65
2022/12/29 02:23:53;;;;;;;4.00;1.50;;;10.70;99.90;;;;;;5074902;28;20188;-64
2022/12/29 02:26:40;;;;;;;7.20;1.70;;;10.70;99.90;;;;;;5071530;28;20202;-64
2022/12/29 02:29:36;;;;;;;3.20;1.30;;;10.60;99.90;;;;;;5074878;28;20275;-65
2022/12/29 02:32:13;;;;;;;7.37;1.60;;;10.60;99.90;;;;;;5074800;28;20674;-65
2022/12/29 02:34:53;;;;;;;6.80;1.30;;;10.50;99.90;;;;;;5074037;28;20192;-64
2022/12/29 02:37:26;;;;;;;1.60;1.50;;;10.50;99.90;;;;;;5075146;28;20188;-65
2022/12/29 02:40:02;;;;;;;2.77;1.60;;;10.40;99.90;;;;;;5074538;28;20303;-65
2022/12/29 02:42:36;;;;;;;3.97;1.67;;;10.40;99.90;;;;;;5074614;28;20231;-65
2022/12/29 02:45:12;;;;;;;3.63;1.50;;;10.40;99.90;;;;;;5074070;28;20203;-65
2022/12/29 02:47:50;;;;;;;2.10;1.83;;;10.40;99.90;;;;;;5073172;28;20223;-64
2022/12/29 02:50:24;;;;;;;4.63;1.70;;;10.40;99.90;;;;;;5074325;28;20674;-65
2022/12/29 02:52:58;;;;;;;4.87;1.50;;;10.40;99.90;;;;;;5073180;28;20188;-65
2022/12/29 02:55:26;;;;;;;6.23;1.77;;;10.40;99.90;;;;;;5073078;28;20545;-65
2022/12/29 02:58:16;;;;;;;6.50;1.67;;;10.40;99.90;;;;;;5074485;28;20196;-65
2022/12/29 03:00:56;;;;;;;5.53;1.40;;;10.40;99.90;;;;;;5074490;28;20196;-65
2022/12/29 03:03:40;;;;;;;3.43;1.63;;;10.40;99.90;;;;;;5074413;28;20191;-65
2022/12/29 03:06:27;;;;;;;4.10;1.60;;;10.40;99.90;;;;;;5074231;28;20192;-65
2022/12/29 03:09:03;;;;;;;8.73;1.73;;;10.40;99.90;;;;;;5074010;28;20227;-65
2022/12/29 03:12:09;;;;;;;3.73;1.30;;;10.30;99.90;;;;;;5074110;28;20223;-66
2022/12/29 03:17:43;;;;;;;3.50;1.37;;;10.30;99.90;;;;;;5072735;28;20192;-65
2022/12/29 03:20:24;;;;;;;2.67;1.50;;;10.30;99.90;;;;;;5074062;28;20222;-65
2022/12/29 03:22:58;;;;;;;5.80;1.47;;;10.20;99.90;;;;;;5072739;28;20188;-65
2022/12/29 03:25:30;;;;;;;3.10;1.63;;;10.30;99.90;;;;;;5073746;28;20216;-65
2022/12/29 03:28:02;;;;;;;7.00;1.50;;;10.30;99.90;;;;;;5073598;28;20638;-64
2022/12/29 03:30:34;;;;;;;4.17;1.43;;;10.30;99.90;;;;;;5074444;28;20184;-65
2022/12/29 03:33:08;;;;;;;6.10;1.50;;;10.20;99.90;;;;;;5073095;28;20180;-64
2022/12/29 03:35:42;;;;;;;6.53;2.00;;;10.20;99.90;;;;;;5073717;28;20192;-65
2022/12/29 03:38:15;;;;;;;7.13;1.63;;;10.20;99.90;;;;;;5073716;28;20188;-65
2022/12/29 03:40:48;;;;;;;5.47;1.67;;;10.20;99.90;;;;;;5073600;28;20207;-65
2022/12/29 03:43:19;;;;;;;3.53;1.77;;;10.10;99.90;;;;;;5073768;28;20269;-66
2022/12/29 03:45:47;;;;;;;7.37;1.90;;;10.10;99.90;;;;;;5073754;28;20180;-65
2022/12/29 03:48:18;;;;;;;5.47;1.50;;;10.10;99.90;;;;;;5072226;28;20196;-65
2022/12/29 03:50:48;;;;;;;7.20;1.73;;;10.10;99.90;;;;;;5073765;28;20684;-64
2022/12/29 03:53:16;;;;;;;5.87;1.50;;;10.10;99.90;;;;;;5073692;28;20192;-65
2022/12/29 03:55:46;;;;;;;10.77;1.87;;;10.00;99.90;;;;;;5073387;28;20265;-65
2022/12/29 03:58:14;;;;;;;7.70;2.13;;;10.00;99.90;;;;;;5073397;28;20637;-65
2022/12/29 04:00:42;;;;;;;5.23;1.80;;;10.00;99.90;;;;;;5073545;28;20216;-65
2022/12/29 04:03:10;;;;;;;6.77;1.90;;;10.00;99.90;;;;;;5073767;28;20206;-64
2022/12/29 04:05:39;;;;;;;2.97;1.57;;;10.00;99.90;;;;;;5073295;28;20187;-64
2022/12/29 04:08:09;;;;;;;4.93;1.50;;;10.00;99.90;;;;;;5072630;28;20188;-65
2022/12/29 04:10:37;;;;;;;5.53;1.47;;;10.00;99.90;;;;;;5073493;28;20184;-65
2022/12/29 04:13:05;;;;;;;6.50;2.23;;;9.90;99.90;;;;;;5073228;28;20235;-65
2022/12/29 04:15:37;;;;;;;3.07;1.53;;;9.90;99.90;;;;;;5072460;28;20212;-64
2022/12/29 04:18:06;;;;;;;4.53;1.40;;;9.90;99.90;;;;;;5072229;28;20184;-65
2022/12/29 04:23:24;;;;;;;7.33;1.50;;;10.00;99.90;;;;;;5073134;28;20180;-64
2022/12/29 04:25:53;;;;;;;4.10;1.80;;;10.10;99.90;;;;;;5073043;28;20207;-65
2022/12/29 04:28:21;;;;;;;3.23;1.50;;;10.20;99.90;;;;;;5071664;28;20184;-65
2022/12/29 04:30:49;;;;;;;3.87;1.43;;;10.20;99.90;;;;;;5072986;28;20189;-64
2022/12/29 04:33:18;;;;;;;4.97;1.50;;;10.20;99.90;;;;;;5073686;28;20579;-65
2022/12/29 04:35:47;;;;;;;3.30;1.50;;;10.30;99.90;;;;;;5072905;28;20196;-64
2022/12/29 04:38:16;;;;;;;2.80;1.50;;;10.30;99.90;;;;;;5072890;28;20198;-64
2022/12/29 04:40:47;;;;;;;2.97;1.47;;;10.40;99.90;;;;;;5074960;28;20212;-64
2022/12/29 04:43:16;;;;;;;3.37;1.53;;;10.40;99.90;;;;;;5077682;28;20193;-64
2022/12/29 04:45:46;;;;;;;4.33;1.47;;;10.40;99.90;;;;;;5058714;28;20258;-65
2022/12/29 04:48:15;;;;;;;1.40;1.30;;;10.30;99.90;;;;;;5076727;28;20188;-65
2022/12/29 04:50:44;;;;;;;1.93;1.33;;;10.30;99.90;;;;;;5076690;28;20670;-65
2022/12/29 04:53:12;;;;;;;3.73;1.23;;;10.20;99.90;;;;;;5077000;28;20180;-65
2022/12/29 04:55:41;;;;;;;2.17;1.40;;;10.20;99.90;;;;;;5076981;28;20188;-65
2022/12/29 04:58:10;;;;;;;3.03;1.57;;;10.10;99.90;;;;;;5075505;28;20215;-65
2022/12/29 05:00:44;;;;;;;5.17;1.57;;;10.10;99.90;;;;;;5076890;28;20216;-64
2022/12/29 05:03:52;;;;;;;4.60;1.53;;;10.20;99.90;;;;;;5076490;28;20539;-65
2022/12/29 05:06:20;;;;;;;4.47;1.53;;;10.20;99.90;;;;;;5076440;28;20176;-65
2022/12/29 05:08:48;;;;;;;5.13;1.40;;;10.20;99.90;;;;;;5076329;28;20235;-64
2022/12/29 05:11:17;;;;;;;3.03;1.50;;;10.20;99.90;;;;;;5074933;28;20226;-65
2022/12/29 05:22:50;;;;;;;3.97;1.33;;;10.30;99.90;;;;;;5076238;28;20167;-65
2022/12/29 05:25:18;;;;;;;10.17;1.80;;;10.30;99.90;;;;;;5076084;28;20207;-65
2022/12/29 05:27:46;;;;;;;7.43;1.90;;;10.30;99.90;;;;;;5076017;28;20193;-66
2022/12/29 05:30:15;;;;;;;5.13;1.63;;;10.30;99.90;;;;;;5074872;28;20650;-65
2022/12/29 05:32:44;;;;;;;3.13;1.40;;;10.30;99.90;;;;;;5074651;28;20616;-64
2022/12/29 05:35:12;;;;;;;4.50;1.57;;;10.30;99.90;;;;;;5074657;28;20191;-64
2022/12/29 05:37:41;;;;;;;3.43;1.80;;;10.20;99.90;;;;;;5075858;28;20658;-64
2022/12/29 05:40:12;;;;;;;3.50;1.53;;;10.20;99.90;;;;;;5075777;28;20224;-64
2022/12/29 05:42:41;;;;;;;6.37;1.73;;;10.20;99.90;;;;;;5076639;28;20196;-65
2022/12/29 05:45:10;;;;;;;4.73;1.67;;;10.20;99.90;;;;;;5075644;28;20192;-65
2022/12/29 05:47:38;;;;;;;4.87;1.80;;;10.20;99.90;;;;;;5075594;28;20184;-64
2022/12/29 05:50:07;;;;;;;6.97;2.00;;;10.20;99.90;;;;;;5076297;28;20530;-65
2022/12/29 05:52:36;;;;;;;5.77;1.70;;;10.30;99.90;;;;;;5075402;28;20192;-65
2022/12/29 05:55:07;;;;;;;8.13;1.67;;;10.30;99.90;;;;;;5075976;28;20181;-64
2022/12/29 05:57:37;;;;;;;5.70;1.63;;;10.30;99.90;;;;;;5076015;28;20643;-64
2022/12/29 06:00:07;;;;;;;7.27;1.67;;;10.20;99.90;;;;;;5074206;28;20198;-65
2022/12/29 06:02:36;;;;;;;3.07;1.70;;;10.20;99.90;;;;;;5075581;28;20271;-65
2022/12/29 06:05:05;;;;;;;4.03;1.60;;;10.20;99.90;;;;;;5075328;28;20188;-64
2022/12/29 06:07:33;;;;;;;4.10;1.57;;;10.20;99.90;;;;;;5075261;28;20219;-64
2022/12/29 06:10:01;;;;;;;3.17;1.67;;;10.10;99.90;;;;;;5075214;28;20194;-65
2022/12/29 06:12:30;;;;;;;5.27;1.60;;;10.20;99.90;;;;;;5075002;28;20390;-65
2022/12/29 06:15:00;;;;;;;5.47;1.57;;;10.20;99.90;;;;;;5075101;28;20196;-65
2022/12/29 06:17:28;;;;;;;7.53;2.30;;;10.20;99.90;;;;;;5075090;28;20184;-65
2022/12/29 06:19:56;;;;;;;8.20;1.70;;;10.20;99.90;;;;;;5075201;28;20188;-64
2022/12/29 06:22:25;;;;;;;7.03;1.80;;;10.30;99.90;;;;;;5075219;28;20212;-64
2022/12/29 06:24:53;;;;;;;8.50;1.83;;;10.30;99.90;;;;;;5073596;28;20204;-65
2022/12/29 06:27:27;;;;;;;5.73;2.17;;;10.30;99.90;;;;;;5075204;28;20271;-65
2022/12/29 06:29:55;;;;;;;8.07;1.97;;;10.40;99.90;;;;;;5074826;28;20185;-65
2022/12/29 06:32:27;;;;;;;5.83;2.17;;;10.30;99.90;;;;;;5074759;28;20650;-65
2022/12/29 06:34:55;;;;;;;9.20;2.30;;;10.30;99.90;;;;;;5056802;28;20195;-64
2022/12/29 06:37:24;;;;;;;9.83;2.20;;;10.30;99.90;;;;;;5074960;28;20673;-64
2022/12/29 06:39:52;;;;;;;5.83;1.70;;;10.30;99.90;;;;;;5074635;28;20230;-65
2022/12/29 06:42:20;;;;;;;6.67;2.03;;;10.30;99.90;;;;;;5074454;28;20211;-65
2022/12/29 06:44:49;;;;;;;7.70;2.03;;;10.30;99.90;;;;;;5073396;28;20215;-64
2022/12/29 06:47:18;;;;;;;10.83;2.10;;;10.40;99.90;;;;;;5074446;28;20224;-65
2022/12/29 06:49:48;;;;;;;7.47;2.43;;;10.30;99.90;;;;;;5073075;28;20198;-64
2022/12/29 06:52:16;;;;;;;8.43;2.20;;;10.40;99.90;;;;;;5075154;28;20192;-65
2022/12/29 06:54:44;;;;;;;6.37;2.20;;;10.30;99.90;;;;;;5074493;28;20663;-65
2022/12/29 06:57:13;;;;;;;13.17;2.43;;;10.30;99.90;;;;;;5074333;28;20192;-65
2022/12/29 06:59:41;;;;;;;4.83;1.90;;;10.20;99.90;;;;;;5074236;28;20681;-65
2022/12/29 07:02:11;;;;;;;8.77;2.13;;;10.20;99.90;;;;;;5073690;28;20230;-65
2022/12/29 07:04:40;;;;;;;11.40;2.47;;;10.30;99.90;;;;;;5073878;28;20192;-65
2022/12/29 07:07:10;;;;;;;7.83;2.10;;;10.40;99.90;;;;;;5072814;28;20206;-65
2022/12/29 07:09:38;;;;;;;11.90;2.67;;;10.40;99.90;;;;;;5072906;28;20203;-65
2022/12/29 07:12:06;;;;;;;9.57;2.10;;;10.40;99.90;;;;;;5073855;28;20224;-65
2022/12/29 07:14:36;;;;;;;11.33;2.30;;;10.40;99.90;;;;;;5073927;28;20192;-65
2022/12/29 07:17:10;;;;;;;8.70;2.27;;;10.40;99.90;;;;;;5074159;28;20191;-64
2022/12/29 07:19:39;;;;;;;10.87;2.40;;;10.40;99.90;;;;;;5074364;28;20189;-64
2022/12/29 07:22:07;;;;;;;4.17;2.07;;;10.40;99.90;;;;;;5072546;28;20636;-65
2022/12/29 07:24:37;;;;;;;9.47;2.43;;;10.40;99.90;;;;;;5055823;28;20227;-64
2022/12/29 07:27:06;;;;;;;10.57;1.87;;;10.40;99.90;;;;;;5072983;28;20220;-65
2022/12/29 07:29:34;;;;;;;12.37;2.27;;;10.40;99.90;;;;;;5072392;28;20187;-64
2022/12/29 07:32:02;;;;;;;5.67;2.13;;;10.50;99.90;;;;;;5072406;28;20669;-65
2022/12/29 07:34:31;;;;;;;9.23;2.10;;;10.50;99.90;;;;;;5073603;28;20666;-64
2022/12/29 07:36:59;;;;;;;10.13;2.20;;;10.50;99.90;;;;;;5106467;28;20651;-64
2022/12/29 07:39:27;;;;;;;13.33;2.40;;;10.60;99.90;;;;;;5073722;28;20192;-64
2022/12/29 07:41:57;;;;;;;11.33;2.37;;;10.60;99.90;;;;;;5073474;28;20216;-64
2022/12/29 07:44:32;;;;;;;5.27;1.80;;;10.60;99.90;;;;;;5072410;28;20200;-65
2022/12/29 07:47:00;;;;;;;14.13;2.50;;;10.60;99.90;;;;;;5073518;28;20271;-65
2022/12/29 07:49:29;;;;;;;10.30;2.07;;;10.60;99.90;;;;;;5074013;28;20200;-64
2022/12/29 07:51:57;;;;;;;11.70;2.50;;;10.60;99.90;;;;;;5073446;28;20195;-65
2022/12/29 07:54:26;;;;;;;10.43;2.80;;;10.60;99.90;;;;;;5073349;28;20183;-65
2022/12/29 07:56:54;;;;;;;8.27;2.50;;;10.60;99.90;;;;;;5073347;28;20194;-64
2022/12/29 07:59:24;;;;;;;9.97;3.00;;;10.60;99.90;;;;;;5073394;28;20677;-64
2022/12/29 08:01:52;;;;;;;8.47;2.20;;;10.60;99.90;;;;;;5073534;28;20212;-64
2022/12/29 08:04:21;;;;;;;9.63;2.03;;;10.60;99.90;;;;;;5073392;28;20195;-64
2022/12/29 08:06:49;;;;;;;8.60;2.40;;;10.60;99.90;;;;;;5074000;28;20192;-65
2022/12/29 08:09:18;;;;;;;11.57;2.37;;;10.60;99.90;;;;;;5073472;28;20188;-64
2022/12/29 08:11:52;;;;;;;5.27;2.37;;;10.60;99.90;;;;;;5073224;28;20651;-65
2022/12/29 08:14:20;;;;;;;8.23;2.87;;;10.60;99.90;;;;;;5075722;28;20274;-64
2022/12/29 08:16:50;;;;;;;9.53;2.07;;;10.60;99.90;;;;;;5078473;28;20727;-64
2022/12/29 08:19:18;;;;;;;9.57;2.00;;;10.60;99.90;;;;;;5080062;28;20192;-64
2022/12/29 08:21:46;;;;;;;8.00;2.67;;;10.60;99.90;;;;;;5078759;28;20200;-64
2022/12/29 08:24:15;;;;;;;14.53;2.93;;;10.60;99.90;;;;;;5078708;28;20226;-65
2022/12/29 08:26:43;;;;;;;8.67;2.00;;;10.60;99.90;;;;;;5112327;28;20192;-64
2022/12/29 08:29:12;;;;;;;8.33;2.27;;;10.60;99.90;;;;;;5080000;28;20188;-64
2022/12/29 08:31:40;;;;;;;5.67;2.03;;;10.60;99.90;;;;;;5079994;28;20180;-64
2022/12/29 08:34:10;;;;;;;8.80;2.50;;;10.50;99.90;;;;;;5079740;28;20202;-65
2022/12/29 08:36:38;;;;;;;10.40;2.50;;;10.40;99.90;;;;;;5079993;28;20188;-65
2022/12/29 08:39:07;;;;;;;6.70;2.47;;;10.30;99.90;;;;;;5079609;28;20242;-65
2022/12/29 08:41:35;;;;;;;14.47;3.70;;;10.20;99.90;;;;;;5079621;28;20184;-65
2022/12/29 08:44:03;;;;;;;12.93;2.50;;;10.10;99.90;;;;;;5079730;28;20203;-65
2022/12/29 08:46:31;;;;;;;9.67;2.30;;;10.00;99.90;;;;;;5079658;28;20196;-64
2022/12/29 08:49:00;;;;;;;9.10;2.20;;;10.00;99.90;;;;;;5079523;28;20196;-65
2022/12/29 08:51:30;;;;;;;15.40;2.50;;;9.90;99.90;;;;;;5078240;28;20219;-65
2022/12/29 08:53:59;;;;;;;8.97;2.67;;;9.90;99.90;;;;;;5112060;28;20188;-65
2022/12/29 08:56:28;;;;;;;12.67;2.47;;;9.80;99.90;;;;;;5079474;28;20196;-65
2022/12/29 08:58:56;;;;;;;11.40;2.63;;;9.80;99.90;;;;;;5080030;28;20192;-65
2022/12/29 09:01:25;;;;;;;11.10;2.40;;;9.70;99.90;;;;;;5079475;28;20196;-65
2022/12/29 09:03:54;;;;;;;15.90;3.10;;;9.60;99.90;;;;;;5078150;28;20216;-65
2022/12/29 09:06:44;;;;;;;6.33;2.10;;;9.60;99.90;;;;;;5079284;28;20208;-65
2022/12/29 09:09:13;;;;;;;10.47;2.80;;;9.60;99.90;;;;;;5079377;28;20219;-65
2022/12/29 09:11:42;;;;;;;11.00;2.93;;;9.60;99.90;;;;;;5079209;28;20306;-64
2022/12/29 09:14:10;;;;;;;8.43;2.47;;;9.60;99.90;;;;;;5079275;28;20192;-65
2022/12/29 09:19:22;;;;;;;10.37;2.50;;;9.60;99.90;;;;;;5052096;28;20211;-65
2022/12/29 09:21:52;;;;;;;12.73;2.60;;;9.60;99.90;;;;;;5079812;28;20196;-65
2022/12/29 09:24:20;;;;;;;14.47;2.53;;;9.60;99.90;;;;;;5079170;28;20693;-65
2022/12/29 09:26:48;;;;;;;9.97;2.83;;;9.60;99.90;;;;;;5074570;28;20662;-65
2022/12/29 09:29:17;;;;;;;10.33;2.30;;;9.60;99.90;;;;;;5076009;28;20196;-65
2022/12/29 09:31:45;;;;;;;12.27;2.60;;;9.60;99.90;;;;;;5075941;28;20193;-64
2022/12/29 09:34:14;;;;;;;16.53;3.07;;;9.50;99.90;;;;;;5074755;28;20194;-65
2022/12/29 09:36:42;;;;;;;8.83;2.47;;;9.40;99.90;;;;;;5076109;28;20215;-65
2022/12/29 09:39:13;;;;;;;10.87;2.60;;;9.40;99.90;;;;;;5075810;28;20195;-65
2022/12/29 09:41:49;;;;;;;13.43;3.07;;;9.30;99.90;;;;;;5075889;28;20188;-65
2022/12/29 09:44:24;;;;;;;14.50;2.90;;;9.30;99.90;;;;;;5075713;28;20214;-65
2022/12/29 09:46:55;;;;;;;11.73;3.23;;;9.30;99.90;;;;;;5075745;28;20546;-65
2022/12/29 09:49:29;;;;;;;8.47;2.57;;;9.40;99.90;;;;;;5074702;28;20192;-65
2022/12/29 09:52:03;;;;;;;12.60;3.20;;;9.40;99.90;;;;;;5075813;28;20195;-65
2022/12/29 09:54:41;;;;;;;16.13;3.00;;;9.50;99.90;;;;;;5075666;28;20642;-65
2022/12/29 09:57:18;;;;;;;13.90;2.97;;;9.60;99.90;;;;;;5075738;28;20242;-65
2022/12/29 09:59:50;;;;;;;18.40;3.30;;;9.80;99.90;;;;;;5075425;28;20196;-65
2022/12/29 10:02:30;;;;;;;18.90;3.80;;;9.90;99.90;;;;;;5075303;28;20188;-65
2022/12/29 10:04:58;;;;;;;14.10;2.60;;;10.00;99.90;;;;;;5075647;28;20238;-65
2022/12/29 10:07:37;;;;;;;15.63;2.70;;;10.10;99.90;;;;;;5075428;28;20267;-65
2022/12/29 10:10:21;;;;;;;16.23;3.10;;;10.20;99.90;;;;;;5075306;28;20200;-65
2022/12/29 10:13:02;;;;;;;9.50;2.83;;;10.30;99.90;;;;;;5075460;28;20234;-65
2022/12/29 10:15:40;;;;;;;8.80;2.47;;;10.30;99.90;;;;;;5075144;28;20191;-65
2022/12/29 10:18:32;;;;;;;9.37;2.50;;;10.30;99.90;;;;;;5075062;28;20192;-65
2022/12/29 10:21:09;;;;;;;13.77;3.20;;;10.40;99.90;;;;;;5075113;28;20189;-66
2022/12/29 10:23:42;;;;;;;12.87;3.23;;;10.40;99.90;;;;;;5073721;28;20215;-65
2022/12/29 10:26:15;;;;;;;10.70;2.77;;;10.60;99.90;;;;;;5075012;28;20216;-65
2022/12/29 10:28:48;;;;;;;16.27;2.87;;;10.70;99.90;;;;;;5075188;28;20196;-66
2022/12/29 10:31:23;;;;;;;10.30;2.57;;;10.70;99.90;;;;;;5074807;28;20184;-65
2022/12/29 10:33:57;;;;;;;12.50;3.03;;;10.70;99.90;;;;;;5075432;28;20190;-65
2022/12/29 10:36:31;;;;;;;8.77;2.80;;;10.70;99.90;;;;;;5074067;28;20528;-65
2022/12/29 10:39:07;;;;;;;19.37;2.70;;;10.80;99.90;;;;;;5072461;28;20545;-65
2022/12/29 10:41:41;;;;;;;8.33;2.33;;;10.90;99.90;;;;;;5073555;28;20191;-65
2022/12/29 10:44:14;;;;;;;13.17;3.23;;;10.80;99.90;;;;;;5074729;28;20258;-65
2022/12/29 10:46:44;;;;;;;10.80;2.73;;;10.80;99.90;;;;;;5074570;28;20184;-65
2022/12/29 10:49:17;;;;;;;13.30;2.73;;;10.70;99.90;;;;;;5073426;28;20188;-65
2022/12/29 10:51:51;;;;;;;10.63;2.70;;;10.70;99.90;;;;;;5074327;28;20676;-66
2022/12/29 10:54:24;;;;;;;7.57;2.60;;;10.80;99.90;;;;;;5074450;28;20192;-64
2022/12/29 10:56:59;;;;;;;10.47;2.53;;;10.80;99.90;;;;;;5074432;28;20654;-65
2022/12/29 10:59:31;;;;;;;15.93;3.47;;;10.80;99.90;;;;;;5074100;28;20291;-65
2022/12/29 11:02:32;;;;;;;15.07;3.43;;;10.80;99.90;;;;;;5074026;28;20184;-65
2022/12/29 11:05:41;;;;;;;15.67;3.07;;;10.80;99.90;;;;;;5074836;28;20172;-65
2022/12/29 11:09:15;;;;;;;15.63;3.40;;;10.80;99.90;;;;;;5074440;28;20180;-65
2022/12/29 11:11:45;;;;;;;14.20;2.90;;;10.70;99.90;;;;;;5073007;28;20230;-64
2022/12/29 11:14:18;;;;;;;16.53;2.80;;;10.70;99.90;;;;;;5074358;28;20184;-65
2022/12/29 11:16:58;;;;;;;13.40;3.00;;;10.70;99.90;;;;;;5073998;28;20203;-65
2022/12/29 11:19:28;;;;;;;13.10;3.10;;;10.70;99.90;;;;;;5074315;28;20191;-65
2022/12/29 11:22:14;;;;;;;15.07;2.80;;;10.80;99.90;;;;;;5074180;28;20196;-64
2022/12/29 11:24:46;;;;;;;10.67;2.87;;;10.90;99.90;;;;;;5072441;28;20211;-65
2022/12/29 11:27:19;;;;;;;11.60;2.67;;;10.90;99.90;;;;;;5074078;28;20203;-65
2022/12/29 11:29:49;;;;;;;8.33;2.50;;;10.80;99.90;;;;;;5073816;28;20230;-65
2022/12/29 11:32:20;;;;;;;11.00;2.43;;;10.80;99.90;;;;;;5074220;28;20219;-65
2022/12/29 11:34:57;;;;;;;12.77;2.90;;;10.80;99.90;;;;;;5073706;28;20192;-65
2022/12/29 11:37:30;;;;;;;11.03;2.70;;;10.80;99.90;;;;;;5073834;28;20192;-65
2022/12/29 11:40:01;;;;;;;8.87;2.50;;;10.80;99.90;;;;;;5072372;28;20196;-65
2022/12/29 11:42:36;;;;;;;12.00;3.13;;;10.80;99.90;;;;;;5073870;28;20597;-66
2022/12/29 11:45:14;;;;;;;13.30;2.33;;;10.80;99.90;;;;;;5072318;28;20211;-65
2022/12/29 11:47:46;;;;;;;10.70;3.10;;;10.80;99.90;;;;;;5073496;28;20198;-65
2022/12/29 11:50:19;;;;;;;9.20;2.53;;;10.90;99.90;;;;;;5071785;28;20192;-64
2022/12/29 11:52:51;;;;;;;12.73;2.80;;;11.00;99.90;;;;;;5073730;28;20694;-65
2022/12/29 11:55:22;;;;;;;10.30;2.27;;;11.00;99.90;;;;;;5073360;28;20237;-65
2022/12/29 11:57:53;;;;;;;11.10;2.77;;;11.00;99.90;;;;;;5073635;28;20199;-65
2022/12/29 12:00:25;;;;;;;15.70;3.10;;;11.10;99.90;;;;;;5073367;28;20215;-65
2022/12/29 12:02:58;;;;;;;11.53;2.33;;;11.10;99.90;;;;;;5072162;28;20172;-65
2022/12/29 12:05:36;;;;;;;9.70;2.43;;;11.10;99.90;;;;;;5073430;28;20220;-65
2022/12/29 12:08:12;;;;;;;8.67;2.33;;;11.10;99.90;;;;;;5056217;28;20199;-66
2022/12/29 12:10:53;;;;;;;11.60;2.40;;;11.10;99.90;;;;;;5073272;28;20293;-65
2022/12/29 12:13:28;;;;;;;12.53;2.50;;;10.90;99.90;;;;;;5073945;28;20192;-64
2022/12/29 12:16:03;;;;;;;10.23;2.57;;;10.80;99.90;;;;;;5073481;28;20190;-65
2022/12/29 12:18:41;;;;;;;12.60;2.80;;;10.80;99.90;;;;;;5073439;28;20187;-64
2022/12/29 12:21:17;;;;;;;7.63;2.13;;;10.70;99.90;;;;;;5072303;28;20198;-65
2022/12/29 12:24:24;;;;;;;6.73;2.40;;;10.70;99.90;;;;;;5071953;28;20228;-64
2022/12/29 12:26:58;;;;;;;7.77;2.33;;;10.70;99.90;;;;;;5014703;28;20212;-64
2022/12/29 12:29:35;;;;;;;5.93;2.13;;;10.80;99.90;;;;;;5061326;28;20231;-64
2022/12/29 12:32:13;;;;;;;4.63;2.00;;;10.80;99.90;;;;;;5073047;28;20196;-65
2022/12/29 12:34:45;;;;;;;9.97;2.00;;;10.80;99.90;;;;;;5073269;28;20535;-65
2022/12/29 12:37:45;;;;;;;7.90;2.40;;;10.80;99.90;;;;;;5071694;28;20192;-65
2022/12/29 12:40:45;;;;;;;12.07;2.53;;;10.80;99.90;;;;;;5073189;28;20176;-65
2022/12/29 12:43:47;;;;;;;5.20;2.23;;;10.90;99.90;;;;;;5060559;28;20212;-65
2022/12/29 12:46:34;;;;;;;8.73;2.50;;;10.90;99.90;;;;;;5072990;28;20270;-65
2022/12/29 12:49:21;;;;;;;11.43;2.63;;;10.80;99.90;;;;;;5073438;28;20188;-66
2022/12/29 12:52:02;;;;;;;10.87;3.10;;;10.70;99.90;;;;;;5072894;28;20188;-66
2022/12/29 12:55:01;;;;;;;9.60;2.50;;;10.80;99.90;;;;;;5071771;28;20654;-65
2022/12/29 12:57:48;;;;;;;10.57;2.63;;;10.80;99.90;;;;;;5072867;28;20550;-66
2022/12/29 13:00:19;;;;;;;14.03;2.50;;;10.80;99.90;;;;;;5072921;28;20177;-65
2022/12/29 13:03:00;;;;;;;9.80;2.83;;;10.80;99.90;;;;;;5076883;28;20196;-65
2022/12/29 13:05:42;;;;;;;7.13;2.60;;;10.90;99.90;;;;;;5075995;28;20223;-66
2022/12/29 13:08:35;;;;;;;9.17;2.63;;;10.80;99.90;;;;;;5075713;28;20184;-65
2022/12/29 13:11:17;;;;;;;7.03;2.63;;;10.80;99.90;;;;;;5076391;28;20199;-66
2022/12/29 13:14:08;;;;;;;4.30;2.40;;;10.80;99.90;;;;;;5076704;28;20215;-66
2022/12/29 13:16:45;;;;;;;7.63;2.67;;;10.70;99.90;;;;;;5076552;28;20199;-66
2022/12/29 13:19:20;;;;;;;6.03;2.47;;;10.60;99.90;;;;;;5076265;28;20214;-66
2022/12/29 13:22:05;;;;;;;5.97;2.07;;;10.50;99.90;;;;;;5075244;28;20192;-65
2022/12/29 13:24:48;;;;;;;3.97;1.90;;;10.40;99.90;;;;;;5076104;28;20567;-66
2022/12/29 13:27:23;;;;;;;8.73;1.97;;;10.40;99.90;;;;;;5075138;28;20184;-66
2022/12/29 13:30:01;;;;;;;3.10;1.47;;;10.40;99.90;;;;;;5076108;28;20191;-65
2022/12/29 13:32:43;;;;;;;3.87;1.90;;;10.40;99.90;;;;;;5076072;28;20192;-66
2022/12/29 13:35:27;;;;;;;4.10;1.90;;;10.40;99.90;;;;;;5075967;28;20184;-66
2022/12/29 13:38:04;;;;;;;6.87;2.17;;;10.40;99.90;;;;;;5076080;28;20184;-66
2022/12/29 13:40:39;;;;;;;4.53;1.83;;;10.40;99.90;;;;;;5075863;28;20213;-67
2022/12/29 13:43:09;;;;;;;10.67;2.23;;;10.30;99.90;;;;;;5076047;28;20246;-67
2022/12/29 13:45:38;;;;;;;5.47;2.20;;;10.10;99.90;;;;;;5075817;28;20229;-68
2022/12/29 13:48:16;;;;;;;6.33;2.30;;;9.90;99.90;;;;;;5075703;28;20279;-67
2022/12/29 13:50:49;;;;;;;6.50;1.60;;;9.70;99.90;;;;;;5076100;28;20192;-66
2022/12/29 13:53:28;;;;;;;4.87;1.40;;;9.40;99.90;;;;;;5075576;28;20643;-66
2022/12/29 13:56:00;;;;;;;1.27;1.20;;;9.00;99.90;;;;;;5075653;28;20558;-66
2022/12/29 13:58:34;;;;;;;3.17;1.50;;;8.80;99.90;;;;;;5076096;28;20543;-66
2022/12/29 14:01:11;;;;;;;2.10;1.50;;;8.70;99.90;;;;;;5075544;28;20192;-67
2022/12/29 14:03:59;;;;;;;2.03;1.20;;;8.70;99.90;;;;;;5075969;28;20191;-67
2022/12/29 14:06:29;;;;;;;1.40;1.30;;;8.60;99.90;;;;;;5074271;28;20292;-66
2022/12/29 14:09:00;;;;;;;2.17;1.27;;;8.50;99.90;;;;;;5075342;28;20184;-67